Time;durP1;ratioP1;P1;durP2;ratioP2;P2;SDS_P1;SDS_P2;PMS_P1;PMS_P2;Temp;Humidity;BMP_temperature;BMP_pressure;BME280_temperature;BME280_humidity;BME280_pressure;Samples;Min_cycle;Max_cycle;Signal;HPM_P1;HPM_P2
2022/11/25 00:00:52;;;;;;;13.82;4.85;;;;;;;9.30;85.73;100798.38;5091755;28;20019;-60
2022/11/25 00:03:20;;;;;;;15.05;5.10;;;;;;;9.35;86.16;100806.03;5092040;28;20024;-60
2022/11/25 00:05:45;;;;;;;19.27;5.88;;;;;;;9.37;86.00;100791.72;5090194;28;20023;-60
2022/11/25 00:08:10;;;;;;;12.25;5.20;;;;;;;9.36;86.02;100797.16;5087632;28;20032;-61
2022/11/25 00:10:36;;;;;;;20.23;5.80;;;;;;;9.38;86.25;100798.75;5076946;28;20032;-60
2022/11/25 00:13:02;;;;;;;23.33;5.93;;;;;;;9.35;86.28;100788.31;5107524;27;20020;-60
2022/11/25 00:15:30;;;;;;;19.83;6.22;;;;;;;9.35;86.60;100804.22;5096842;28;20352;-60
2022/11/25 00:17:56;;;;;;;19.75;5.97;;;;;;;9.37;86.57;100790.88;5092143;28;20030;-60
2022/11/25 00:20:24;;;;;;;21.30;5.55;;;;;;;9.36;87.00;100791.84;5091180;28;20421;-61
2022/11/25 00:22:49;;;;;;;18.20;5.35;;;;;;;9.35;86.91;100785.66;5083863;28;20076;-60
2022/11/25 00:25:15;;;;;;;16.38;5.25;;;;;;;9.32;87.22;100784.06;5082385;28;20051;-60
2022/11/25 00:27:40;;;;;;;17.13;5.78;;;;;;;9.33;86.90;100782.25;5090070;28;20452;-60
2022/11/25 00:30:06;;;;;;;17.15;5.15;;;;;;;9.32;87.15;100781.41;5092100;28;20471;-60
2022/11/25 00:32:31;;;;;;;17.75;6.15;;;;;;;9.30;87.17;100775.31;5088263;28;20039;-60
2022/11/25 00:34:57;;;;;;;21.60;6.05;;;;;;;9.29;87.43;100776.28;5087310;28;20036;-60
2022/11/25 00:37:25;;;;;;;18.30;5.88;;;;;;;9.31;87.61;100774.38;5071279;28;20064;-60
2022/11/25 00:39:50;;;;;;;23.13;5.47;;;;;;;9.30;87.51;100771.81;5071707;28;20036;-60
2022/11/25 00:45:00;;;;;;;15.13;5.57;;;;;;;9.30;87.70;100771.81;5093917;28;20089;-60
2022/11/25 00:47:25;;;;;;;22.27;5.72;;;;;;;9.31;87.47;100770.88;5092088;28;20391;-60
2022/11/25 00:49:53;;;;;;;20.08;5.75;;;;;;;9.29;87.83;100764.78;5073311;28;20065;-60
2022/11/25 00:52:24;;;;;;;20.00;6.00;;;;;;;9.26;88.23;100763.16;5123082;28;20410;-60
2022/11/25 00:54:51;;;;;;;21.02;6.18;;;;;;;9.28;87.98;100771.03;5091263;28;20024;-60
2022/11/25 00:57:19;;;;;;;21.08;5.53;;;;;;;9.26;88.24;100763.16;5090841;28;20018;-60
2022/11/25 00:59:45;;;;;;;20.58;5.97;;;;;;;9.25;88.03;100772.06;5091538;28;20028;-60
2022/11/25 01:02:11;;;;;;;16.52;5.35;;;;;;;9.31;87.76;100779.69;5089518;28;20032;-60
2022/11/25 01:04:37;;;;;;;27.05;6.32;;;;;;;9.24;88.22;100774.84;5091705;28;20024;-60
2022/11/25 01:07:05;;;;;;;19.90;5.65;;;;;;;9.30;88.24;100783.28;5090020;28;20424;-60
2022/11/25 01:09:31;;;;;;;23.90;6.13;;;;;;;9.29;88.17;100776.28;5091171;28;20383;-60
2022/11/25 01:11:57;;;;;;;21.55;5.63;;;;;;;9.29;88.12;100763.00;5089841;28;20042;-60
2022/11/25 01:14:23;;;;;;;23.73;5.57;;;;;;;9.31;88.68;100777.03;5096766;28;20024;-60
2022/11/25 01:16:49;;;;;;;21.27;5.55;;;;;;;9.33;88.72;100782.25;5089961;28;20024;-60
2022/11/25 01:19:16;;;;;;;17.88;6.05;;;;;;;9.34;88.73;100783.94;5091464;28;20020;-60
2022/11/25 01:21:42;;;;;;;21.67;6.05;;;;;;;9.37;88.55;100780.28;5082934;28;20030;-60
2022/11/25 01:24:10;;;;;;;20.67;5.38;;;;;;;9.36;88.44;100782.06;5091376;28;20040;-60
2022/11/25 01:26:36;;;;;;;19.77;5.72;;;;;;;9.33;88.55;100774.28;5082248;28;20024;-60
2022/11/25 01:29:05;;;;;;;24.27;5.40;;;;;;;9.38;88.40;100782.81;5091513;28;20096;-60
2022/11/25 01:31:33;;;;;;;20.70;5.03;;;;;;;9.36;89.08;100795.34;5091343;28;20539;-60
2022/11/25 01:34:06;;;;;;;13.90;5.20;;;;;;;9.40;88.56;100799.50;5095145;28;20031;-60
2022/11/25 01:36:32;;;;;;;14.32;5.95;;;;;;;9.41;88.71;100793.28;5092618;28;20364;-60
2022/11/25 01:38:59;;;;;;;20.98;5.68;;;;;;;9.40;88.49;100796.00;5095586;28;20054;-60
2022/11/25 01:41:30;;;;;;;20.33;5.55;;;;;;;9.41;88.99;100803.91;5096064;28;20035;-60
2022/11/25 01:44:05;;;;;;;18.48;5.47;;;;;;;9.41;89.03;100795.06;5081672;28;20103;-60
2022/11/25 01:46:40;;;;;;;19.60;5.60;;;;;;;9.45;88.66;100812.53;5094648;28;20426;-60
2022/11/25 01:49:11;;;;;;;19.48;6.32;;;;;;;9.44;89.21;100814.34;5094962;28;20020;-60
2022/11/25 01:52:13;;;;;;;22.80;5.80;;;;;;;9.46;88.97;100820.38;5093749;28;20441;-60
2022/11/25 01:54:57;;;;;;;21.52;5.65;;;;;;;9.46;89.00;100835.47;5091914;28;20044;-60
2022/11/25 01:57:31;;;;;;;18.55;5.38;;;;;;;9.45;89.47;100831.97;5094424;28;20039;-60
2022/11/25 02:00:00;;;;;;;16.95;5.40;;;;;;;9.45;89.36;100834.63;5093339;28;20163;-60
2022/11/25 02:02:27;;;;;;;18.90;5.70;;;;;;;9.42;89.39;100840.09;5094208;28;20073;-60
2022/11/25 02:04:53;;;;;;;21.90;5.60;;;;;;;9.45;89.61;100841.72;5095471;28;20031;-60
2022/11/25 02:07:33;;;;;;;23.98;6.25;;;;;;;9.49;89.88;100837.94;5094422;28;20036;-60
2022/11/25 02:10:01;;;;;;;18.73;5.47;;;;;;;9.50;90.04;100851.13;5092934;28;20390;-60
2022/11/25 02:12:27;;;;;;;16.90;5.32;;;;;;;9.52;89.67;100853.69;5106439;28;20027;-60
2022/11/25 02:14:55;;;;;;;18.70;5.15;;;;;;;9.51;89.87;100849.34;5097585;28;20073;-60
2022/11/25 02:17:21;;;;;;;20.13;5.60;;;;;;;9.50;89.98;100861.75;5109305;28;20028;-60
2022/11/25 02:19:57;;;;;;;19.10;5.57;;;;;;;9.49;90.17;100859.19;5094181;28;20111;-60
2022/11/25 02:22:31;;;;;;;18.90;4.97;;;;;;;9.49;89.92;100861.84;5092324;28;20188;-60
2022/11/25 02:25:07;;;;;;;17.55;5.60;;;;;;;9.44;91.03;100858.59;5093335;28;20425;-60
2022/11/25 02:27:35;;;;;;;20.05;5.53;;;;;;;9.49;91.01;100860.03;5095014;28;20391;-60
2022/11/25 02:30:00;;;;;;;18.95;5.80;;;;;;;9.39;92.16;100861.53;5104199;28;20076;-60
2022/11/25 02:32:25;;;;;;;19.35;5.93;;;;;;;9.40;92.81;100867.69;5093981;28;20024;-60
2022/11/25 02:34:51;;;;;;;17.17;5.20;;;;;;;9.39;92.96;100876.59;5103396;28;20028;-60
2022/11/25 02:37:19;;;;;;;16.25;5.50;;;;;;;9.35;93.65;100872.38;5110044;28;20036;-60
2022/11/25 02:39:46;;;;;;;17.92;5.47;;;;;;;9.32;94.29;100874.31;5093590;28;20367;-60
2022/11/25 02:42:16;;;;;;;14.88;5.05;;;;;;;9.28;95.10;100885.16;5096175;28;20040;-60
2022/11/25 02:44:42;;;;;;;19.88;5.05;;;;;;;9.24;95.20;100879.19;5097014;28;20111;-60
2022/11/25 02:47:07;;;;;;;16.83;5.15;;;;;;;9.26;95.28;100879.09;5103450;28;20102;-60
2022/11/25 02:49:33;;;;;;;15.07;4.85;;;;;;;9.22;96.29;100873.09;5102778;28;20115;-60
2022/11/25 02:51:59;;;;;;;18.33;5.18;;;;;;;9.21;96.41;100862.59;5094202;28;20028;-60
2022/11/25 02:54:25;;;;;;;17.83;4.68;;;;;;;9.12;96.71;100852.47;5090647;28;20024;-60
2022/11/25 02:56:50;;;;;;;12.25;4.45;;;;;;;9.14;97.17;100858.56;5078726;28;20081;-60
2022/11/25 02:59:18;;;;;;;18.73;5.18;;;;;;;9.12;97.37;100841.84;5083104;28;20032;-60
2022/11/25 03:01:44;;;;;;;15.18;4.75;;;;;;;9.12;97.58;100833.91;5104438;27;20451;-60
2022/11/25 03:04:10;;;;;;;15.18;4.20;;;;;;;9.07;97.42;100805.00;5076110;28;20111;-61
2022/11/25 03:06:36;;;;;;;17.92;5.00;;;;;;;9.03;97.51;100784.88;5121684;27;20036;-60
2022/11/25 03:09:04;;;;;;;16.83;4.63;;;;;;;9.05;98.07;100801.56;5076803;28;20090;-60
2022/11/25 03:14:14;;;;;;;14.45;4.70;;;;;;;8.98;98.39;100819.63;5092529;28;20505;-60
2022/11/25 03:16:39;;;;;;;16.85;4.07;;;;;;;8.90;98.29;100821.88;5083033;28;20036;-60
2022/11/25 03:19:05;;;;;;;13.40;4.45;;;;;;;8.92;98.99;100845.66;5085005;28;20027;-60
2022/11/25 03:21:32;;;;;;;14.25;4.07;;;;;;;8.95;98.42;100842.84;5093535;28;20568;-60
2022/11/25 03:23:58;;;;;;;11.88;4.28;;;;;;;8.94;98.08;100828.72;5090891;28;20221;-60
2022/11/25 03:26:24;;;;;;;13.35;4.68;;;;;;;8.94;98.10;100817.22;5091356;28;20085;-60
2022/11/25 03:28:50;;;;;;;12.43;4.13;;;;;;;8.92;98.06;100812.03;5091019;28;20028;-60
2022/11/25 03:31:16;;;;;;;11.70;3.63;;;;;;;8.92;98.45;100827.09;5091992;28;20483;-60
2022/11/25 03:33:41;;;;;;;9.15;3.60;;;;;;;8.91;97.98;100855.38;5072129;28;20028;-61
2022/11/25 03:36:09;;;;;;;8.68;3.67;;;;;;;8.84;98.25;100864.66;5081274;28;20032;-60
2022/11/25 03:38:34;;;;;;;10.98;3.90;;;;;;;8.86;98.57;100879.53;5092299;28;20028;-61
2022/11/25 03:41:02;;;;;;;10.85;3.80;;;;;;;8.83;98.72;100877.06;5076578;28;20122;-60
2022/11/25 03:43:28;;;;;;;8.32;3.50;;;;;;;8.84;98.71;100877.91;5094348;28;20028;-60
2022/11/25 03:45:53;;;;;;;9.55;3.85;;;;;;;8.85;98.63;100874.31;5073833;28;20039;-60
2022/11/25 03:48:18;;;;;;;7.47;3.28;;;;;;;8.79;98.15;100878.16;5091758;28;20064;-60
2022/11/25 03:50:44;;;;;;;9.85;3.60;;;;;;;8.79;98.29;100874.66;5093151;28;20024;-61
2022/11/25 03:53:10;;;;;;;7.63;3.25;;;;;;;8.75;98.20;100889.03;5072633;28;20028;-60
2022/11/25 03:55:35;;;;;;;12.20;3.50;;;;;;;8.73;98.63;100893.53;5091783;28;20032;-60
2022/11/25 03:58:00;;;;;;;8.13;3.25;;;;;;;8.71;98.94;100896.31;5081049;28;20495;-60
2022/11/25 04:00:26;;;;;;;7.75;3.53;;;;;;;8.70;99.09;100888.41;5109522;28;20038;-60
2022/11/25 04:02:51;;;;;;;9.23;3.58;;;;;;;8.69;98.46;100889.34;5089866;28;20151;-60
2022/11/25 04:05:19;;;;;;;7.97;3.28;;;;;;;8.65;99.21;100893.97;5077843;28;20432;-60
2022/11/25 04:07:45;;;;;;;8.13;3.83;;;;;;;8.44;99.02;100874.75;5093493;28;20085;-60
2022/11/25 04:10:11;;;;;;;8.90;3.42;;;;;;;8.56;99.54;100900.63;5091907;28;20442;-60
2022/11/25 04:12:45;;;;;;;10.18;3.55;;;;;;;8.53;99.21;100898.16;5092465;28;20417;-60
2022/11/25 04:15:15;;;;;;;6.43;3.20;;;;;;;8.51;99.42;100902.66;5092216;28;20040;-60
2022/11/25 04:17:41;;;;;;;8.75;3.55;;;;;;;8.46;99.10;100906.50;5092754;28;20038;-60
2022/11/25 04:20:07;;;;;;;10.35;3.42;;;;;;;8.45;99.64;100905.66;5091495;28;20024;-60
2022/11/25 04:22:33;;;;;;;5.85;3.15;;;;;;;8.43;99.14;100911.97;5092449;28;20056;-60
2022/11/25 04:24:59;;;;;;;6.75;3.50;;;;;;;8.35;99.48;100918.50;5090409;28;20032;-60
2022/11/25 04:27:25;;;;;;;7.32;3.15;;;;;;;8.26;99.25;100916.31;5125809;27;20043;-60
2022/11/25 04:29:50;;;;;;;6.53;3.08;;;;;;;8.23;99.48;100920.94;5093333;28;20016;-60
2022/11/25 04:32:16;;;;;;;5.60;3.00;;;;;;;8.30;99.50;100935.59;5091983;28;20059;-60
2022/11/25 04:34:41;;;;;;;7.85;3.67;;;;;;;8.23;99.49;100934.16;5091590;28;20081;-60
2022/11/25 04:37:07;;;;;;;7.20;3.13;;;;;;;8.20;99.57;100941.34;5091241;28;20040;-60
2022/11/25 04:39:35;;;;;;;6.00;3.20;;;;;;;8.26;99.95;100945.47;5094555;28;20016;-60
2022/11/25 04:44:47;;;;;;;8.57;3.42;;;;;;;8.21;99.87;100968.72;5091987;28;20496;-60
2022/11/25 04:47:13;;;;;;;6.43;2.97;;;;;;;8.19;99.87;100957.31;5110934;28;20072;-60
2022/11/25 04:49:38;;;;;;;9.38;3.55;;;;;;;8.15;100.00;100945.19;5100049;28;20494;-60
2022/11/25 04:52:04;;;;;;;8.38;3.60;;;;;;;8.16;100.00;100962.78;5096375;28;20036;-60
2022/11/25 04:54:29;;;;;;;8.73;3.60;;;;;;;8.11;100.00;100951.56;5093037;28;20510;-60
2022/11/25 04:56:55;;;;;;;7.07;3.17;;;;;;;8.07;100.00;100952.66;5108764;28;20036;-60
2022/11/25 04:59:39;;;;;;;6.93;3.58;;;;;;;8.04;100.00;100958.13;5096517;28;20020;-60
2022/11/25 05:02:18;;;;;;;8.75;3.75;;;;;;;8.04;100.00;100972.22;5093302;28;20086;-60
2022/11/25 05:04:45;;;;;;;6.10;3.25;;;;;;;7.99;100.00;100971.56;5111489;28;20024;-60
2022/11/25 05:07:11;;;;;;;8.60;3.45;;;;;;;7.99;100.00;100976.03;5115082;28;20028;-60
2022/11/25 05:09:37;;;;;;;9.15;3.60;;;;;;;7.95;100.00;100977.97;5115508;28;20031;-60
2022/11/25 05:12:04;;;;;;;7.68;3.50;;;;;;;8.01;100.00;100977.66;5100325;28;20034;-60
2022/11/25 05:14:30;;;;;;;9.70;3.92;;;;;;;7.70;100.00;100950.03;5097368;28;20077;-60
2022/11/25 05:16:58;;;;;;;10.98;4.00;;;;;;;7.89;100.00;100978.28;5095346;28;20472;-60
2022/11/25 05:19:24;;;;;;;9.65;4.30;;;;;;;7.87;100.00;100980.13;5113138;28;20020;-60
2022/11/25 05:21:51;;;;;;;9.15;3.83;;;;;;;7.83;100.00;100974.16;5111970;28;20038;-60
2022/11/25 05:24:17;;;;;;;9.00;3.70;;;;;;;7.80;100.00;100982.25;5094290;28;20487;-60
2022/11/25 05:26:42;;;;;;;9.25;4.05;;;;;;;7.78;100.00;100981.44;5116045;27;20044;-60
2022/11/25 05:29:08;;;;;;;10.93;4.50;;;;;;;7.76;100.00;100977.16;5089319;28;20032;-60
2022/11/25 05:31:35;;;;;;;8.57;4.53;;;;;;;7.78;100.00;100980.59;5100575;28;20042;-60
2022/11/25 05:34:01;;;;;;;12.88;4.63;;;;;;;7.73;100.00;100972.88;5105753;28;20066;-60
2022/11/25 05:36:27;;;;;;;8.68;4.40;;;;;;;7.68;100.00;100985.50;5098127;28;20027;-60
2022/11/25 05:38:54;;;;;;;7.85;4.47;;;;;;;7.69;100.00;100984.56;5094579;28;20073;-60
2022/11/25 05:41:20;;;;;;;7.85;4.60;;;;;;;7.69;100.00;100982.75;5095878;28;20024;-60
2022/11/25 05:43:46;;;;;;;10.65;5.20;;;;;;;7.67;100.00;100989.06;5098985;28;20039;-60
2022/11/25 05:46:12;;;;;;;9.30;5.10;;;;;;;7.61;100.00;100984.91;5093637;28;20099;-60
2022/11/25 05:48:37;;;;;;;10.57;5.13;;;;;;;7.56;100.00;100992.25;5094534;28;20107;-60
2022/11/25 05:51:04;;;;;;;11.57;5.60;;;;;;;7.59;100.00;100997.38;5098188;28;20031;-60
2022/11/25 05:53:30;;;;;;;10.48;6.15;;;;;;;7.60;100.00;101001.75;5093599;28;20114;-60
2022/11/25 05:55:59;;;;;;;11.40;6.35;;;;;;;7.52;100.00;100998.59;5097746;28;20470;-60
2022/11/25 05:58:25;;;;;;;12.93;6.50;;;;;;;7.54;100.00;101006.47;5094577;28;20065;-60
2022/11/25 06:00:51;;;;;;;17.27;7.03;;;;;;;7.56;100.00;101010.78;5094397;28;20034;-60
2022/11/25 06:03:22;;;;;;;12.88;6.68;;;;;;;7.55;100.00;101010.81;5093764;28;20111;-60
2022/11/25 06:05:47;;;;;;;15.52;6.55;;;;;;;7.56;100.00;101007.25;5126648;27;20073;-60
2022/11/25 06:08:13;;;;;;;10.15;7.07;;;;;;;7.49;100.00;101006.69;5093975;28;20395;-60
2022/11/25 06:10:40;;;;;;;17.00;7.50;;;;;;;7.51;100.00;101012.78;5126840;27;20487;-60
2022/11/25 06:13:06;;;;;;;15.05;7.57;;;;;;;7.54;100.00;101014.41;5099799;28;20111;-60
2022/11/25 06:15:32;;;;;;;16.02;8.18;;;;;;;7.48;100.00;101016.41;5095995;28;20028;-60
2022/11/25 06:17:57;;;;;;;14.48;7.40;;;;;;;7.51;100.00;101012.78;5092482;28;20085;-60
2022/11/25 06:20:23;;;;;;;19.58;7.53;;;;;;;7.54;100.00;101022.34;5092556;28;20119;-60
2022/11/25 06:22:49;;;;;;;14.32;8.15;;;;;;;7.54;100.00;101032.94;5095890;28;20040;-60
2022/11/25 06:25:15;;;;;;;16.60;8.00;;;;;;;7.51;100.00;101026.00;5092782;28;20047;-60
2022/11/25 06:27:40;;;;;;;16.50;8.20;;;;;;;7.50;100.00;101024.31;5099565;28;20024;-60
2022/11/25 06:30:09;;;;;;;17.98;8.48;;;;;;;7.47;100.00;101019.13;5103068;28;20093;-60
2022/11/25 06:32:37;;;;;;;16.83;8.60;;;;;;;7.50;100.00;101035.75;5092468;28;20077;-60
2022/11/25 06:35:02;;;;;;;18.15;8.20;;;;;;;7.45;100.00;101037.72;5098143;28;20027;-60
2022/11/25 06:37:28;;;;;;;15.90;8.27;;;;;;;7.41;100.00;101030.88;5093736;28;20028;-60
2022/11/25 06:39:53;;;;;;;14.95;8.32;;;;;;;7.40;100.00;101039.72;5095356;28;20028;-60
2022/11/25 06:42:18;;;;;;;15.45;7.50;;;;;;;7.46;100.00;101050.03;5093369;28;20055;-60
2022/11/25 06:44:46;;;;;;;14.15;6.85;;;;;;;7.47;100.00;101048.22;5104600;28;20038;-60
2022/11/25 06:47:12;;;;;;;12.68;6.50;;;;;;;7.44;100.00;101054.56;5105393;28;20111;-60
2022/11/25 06:49:40;;;;;;;15.50;6.63;;;;;;;7.46;100.00;101057.97;5108351;28;20055;-60
2022/11/25 06:52:06;;;;;;;12.63;6.28;;;;;;;7.44;100.00;101067.78;5092182;28;20047;-60
2022/11/25 06:54:31;;;;;;;13.38;6.22;;;;;;;7.36;100.00;101064.63;5091910;28;20066;-60
2022/11/25 06:56:57;;;;;;;13.63;6.85;;;;;;;7.43;100.00;101067.84;5094079;28;20036;-60
2022/11/25 06:59:22;;;;;;;11.90;5.80;;;;;;;7.40;100.00;101076.78;5098550;28;20028;-60
2022/11/25 07:01:48;;;;;;;12.52;6.43;;;;;;;7.40;100.00;101074.13;5106301;28;20036;-60
2022/11/25 07:04:14;;;;;;;12.77;6.25;;;;;;;7.39;100.00;101075.06;5092688;28;20046;-60
2022/11/25 07:06:41;;;;;;;14.25;5.80;;;;;;;7.39;100.00;101077.72;5106153;28;20031;-60
2022/11/25 07:09:07;;;;;;;10.30;5.00;;;;;;;7.34;100.00;101076.22;5128891;27;20024;-60
2022/11/25 07:11:35;;;;;;;10.18;5.60;;;;;;;7.28;100.00;101075.53;5111761;28;20667;-61
2022/11/25 07:14:03;;;;;;;15.40;5.53;;;;;;;7.27;100.00;101087.06;5097522;28;20386;-62
2022/11/25 07:16:29;;;;;;;14.60;5.82;;;;;;;7.31;100.00;101095.72;5113959;27;20119;-62
2022/11/25 07:18:55;;;;;;;14.18;5.97;;;;;;;7.20;100.00;101098.84;5078420;28;20024;-62
2022/11/25 07:21:24;;;;;;;11.73;5.63;;;;;;;7.25;100.00;101096.00;5100942;27;20514;-62
2022/11/25 07:23:51;;;;;;;11.93;4.80;;;;;;;7.24;100.00;101110.16;5086492;28;20028;-62
2022/11/25 07:26:22;;;;;;;15.70;6.28;;;;;;;7.26;100.00;101116.22;5093779;28;20044;-62
2022/11/25 07:28:49;;;;;;;12.73;5.95;;;;;;;7.24;100.00;101113.66;5092118;28;20059;-62
2022/11/25 07:31:23;;;;;;;11.75;5.70;;;;;;;7.24;100.00;101126.03;5090067;28;20020;-62
2022/11/25 07:33:53;;;;;;;12.80;6.07;;;;;;;7.22;100.00;101127.88;5072330;28;20100;-62
2022/11/25 07:36:19;;;;;;;12.65;5.38;;;;;;;7.19;100.00;101130.66;5084490;28;20024;-62
2022/11/25 07:38:46;;;;;;;13.98;6.13;;;;;;;7.21;100.00;101139.41;5092262;28;20107;-62
2022/11/25 07:41:19;;;;;;;11.98;5.90;;;;;;;7.23;100.00;101142.81;5092624;28;20043;-62
2022/11/25 07:43:50;;;;;;;11.90;5.97;;;;;;;7.21;100.00;101144.69;5112429;28;20051;-61
2022/11/25 07:46:23;;;;;;;12.13;5.70;;;;;;;7.18;100.00;101156.25;5112838;28;20535;-62
2022/11/25 07:48:53;;;;;;;15.70;5.78;;;;;;;7.22;100.00;101155.19;5108782;28;20027;-62
2022/11/25 07:51:21;;;;;;;15.13;6.10;;;;;;;7.23;100.00;101163.97;5091860;28;20085;-62
2022/11/25 07:53:48;;;;;;;11.88;5.68;;;;;;;7.22;100.00;101168.41;5121734;27;20123;-62
2022/11/25 07:56:17;;;;;;;12.15;5.25;;;;;;;7.21;100.00;101173.78;5085225;28;20032;-62
2022/11/25 07:58:43;;;;;;;13.60;5.53;;;;;;;7.15;100.00;101163.47;5090356;28;20075;-62
2022/11/25 08:01:10;;;;;;;14.38;6.32;;;;;;;7.20;100.00;101178.19;5093838;28;20076;-62
2022/11/25 08:03:38;;;;;;;15.15;6.30;;;;;;;7.22;100.00;101184.28;5100323;28;20034;-60
2022/11/25 08:06:14;;;;;;;14.52;5.40;;;;;;;7.20;100.00;101186.13;5097087;28;20069;-62
2022/11/25 08:08:41;;;;;;;12.75;5.57;;;;;;;7.20;100.00;101190.56;5093048;28;20055;-62
2022/11/25 08:11:08;;;;;;;14.10;5.90;;;;;;;7.19;100.00;101186.22;5093522;28;20048;-62
2022/11/25 08:13:34;;;;;;;12.32;5.55;;;;;;;7.31;100.00;101198.91;5094955;28;20030;-62
2022/11/25 08:15:59;;;;;;;12.35;5.47;;;;;;;7.30;100.00;101209.56;5091558;28;20378;-62
2022/11/25 08:18:25;;;;;;;11.05;5.28;;;;;;;7.29;100.00;101206.03;5090792;28;20020;-62
2022/11/25 08:20:50;;;;;;;12.75;5.80;;;;;;;7.33;100.00;101206.78;5089998;28;20039;-62
2022/11/25 08:23:16;;;;;;;12.38;5.05;;;;;;;7.33;100.00;101212.94;5093892;28;20044;-62
2022/11/25 08:25:41;;;;;;;14.02;5.88;;;;;;;7.37;100.00;101221.59;5089424;28;20097;-62
2022/11/25 08:28:07;;;;;;;10.77;5.88;;;;;;;7.37;100.00;101218.94;5091104;28;20024;-62
2022/11/25 08:30:33;;;;;;;9.88;5.30;;;;;;;7.34;100.00;101208.50;5091110;28;20020;-62
2022/11/25 08:33:03;;;;;;;11.90;5.45;;;;;;;7.40;100.00;101224.97;5090514;28;20082;-62
2022/11/25 08:35:36;;;;;;;;;;;;;;;7.49;100.00;101223.69;5090072;28;20073;-62
2022/11/25 08:38:05;;;;;;;10.15;5.28;;;;;;;7.49;100.00;101219.25;5090702;28;19999;-62
2022/11/25 08:40:32;;;;;;;12.02;5.75;;;;;;;7.54;100.00;101227.00;5091983;28;20494;-62
2022/11/25 08:42:58;;;;;;;11.73;5.78;;;;;;;7.55;100.00;101230.50;5091551;28;20456;-62
2022/11/25 08:45:23;;;;;;;13.30;5.95;;;;;;;7.57;100.00;101226.00;5091036;28;20020;-62
2022/11/25 08:47:49;;;;;;;9.90;5.63;;;;;;;7.59;100.00;101222.38;5072564;28;20077;-62
2022/11/25 08:50:15;;;;;;;11.63;6.00;;;;;;;7.61;100.00;101227.59;5090601;28;20351;-62
2022/11/25 08:52:40;;;;;;;14.05;5.90;;;;;;;7.64;100.00;101223.00;5091445;28;20020;-62
2022/11/25 08:55:07;;;;;;;11.52;5.95;;;;;;;7.68;100.00;101232.53;5091319;28;20066;-62
2022/11/25 08:57:32;;;;;;;9.88;5.40;;;;;;;7.70;100.00;101232.47;5090624;28;20084;-62
2022/11/25 08:59:58;;;;;;;12.85;5.15;;;;;;;7.73;100.00;101237.63;5091210;28;20123;-62
2022/11/25 09:02:26;;;;;;;14.43;5.82;;;;;;;7.78;100.00;101238.28;5104192;28;20062;-62
2022/11/25 09:04:51;;;;;;;13.38;5.65;;;;;;;7.79;100.00;101239.97;5091036;28;20403;-62
2022/11/25 09:07:17;;;;;;;17.45;6.05;;;;;;;7.87;100.00;101245.81;5091145;28;20036;-62
2022/11/25 09:09:42;;;;;;;12.00;5.63;;;;;;;7.91;100.00;101252.69;5090219;28;20024;-62
2022/11/25 09:12:08;;;;;;;12.40;5.70;;;;;;;7.95;100.00;101258.72;5088846;28;20024;-62
2022/11/25 09:14:36;;;;;;;10.43;5.30;;;;;;;8.03;100.00;101253.03;5089837;28;20032;-61
2022/11/25 09:17:06;;;;;;;13.80;5.88;;;;;;;8.07;100.00;101257.28;5101496;28;20048;-62
2022/11/25 09:19:32;;;;;;;14.77;6.20;;;;;;;8.12;100.00;101260.59;5088745;28;20721;-62
2022/11/25 09:21:57;;;;;;;21.73;6.78;;;;;;;8.20;100.00;101272.53;5096273;28;20318;-62
2022/11/25 09:24:23;;;;;;;17.33;6.82;;;;;;;8.18;100.00;101274.41;5094251;28;20052;-61
2022/11/25 09:26:48;;;;;;;15.40;6.40;;;;;;;8.30;99.90;101267.69;5092371;28;20032;-62
2022/11/25 09:29:14;;;;;;;10.20;5.88;;;;;;;8.39;98.97;101275.22;5099599;28;20478;-62
2022/11/25 09:31:39;;;;;;;15.65;6.80;;;;;;;8.42;98.96;101282.19;5088726;28;20066;-62
2022/11/25 09:34:06;;;;;;;14.27;5.65;;;;;;;8.41;98.94;101269.84;5090903;28;20032;-62
2022/11/25 09:36:32;;;;;;;16.60;6.72;;;;;;;8.46;98.52;101273.13;5086812;28;20035;-62
2022/11/25 09:38:58;;;;;;;16.00;6.35;;;;;;;8.54;98.84;101278.94;5090050;28;20353;-62
2022/11/25 09:48:01;;;;;;;15.80;6.00;;;;;;;8.90;96.97;101314.38;5079849;28;20039;-62
2022/11/25 09:50:32;;;;;;;12.63;5.53;;;;;;;8.90;94.01;101280.75;5090386;28;20032;-62
2022/11/25 09:53:17;;;;;;;13.60;5.55;;;;;;;9.08;94.01;101309.00;5084669;28;20035;-62
2022/11/25 09:55:49;;;;;;;12.10;6.00;;;;;;;9.19;93.00;101310.28;5093519;28;20081;-62
2022/11/25 09:58:36;;;;;;;15.77;5.60;;;;;;;9.36;93.46;101310.31;5093116;28;20035;-62
2022/11/25 10:01:21;;;;;;;14.18;5.78;;;;;;;9.66;93.06;101315.84;5078697;28;20020;-62
2022/11/25 10:03:53;;;;;;;14.77;5.72;;;;;;;9.96;90.88;101320.47;5092454;28;20467;-62
2022/11/25 10:06:23;;;;;;;14.20;6.15;;;;;;;10.01;88.08;101319.28;5094931;28;20030;-62
2022/11/25 10:08:55;;;;;;;;;;;;;;;10.13;90.45;101327.56;5093210;28;20036;-62
2022/11/25 10:11:23;;;;;;;14.63;5.53;;;;;;;10.04;88.24;101328.91;5093349;28;19914;-62
2022/11/25 10:14:26;;;;;;;13.98;5.40;;;;;;;10.26;88.52;101341.03;5092088;28;20078;-62
2022/11/25 10:17:17;;;;;;;13.80;5.28;;;;;;;10.52;86.16;101337.00;5109357;28;20031;-62
2022/11/25 10:19:50;;;;;;;16.70;6.32;;;;;;;10.62;84.24;101335.56;5093030;28;20088;-63
2022/11/25 10:22:21;;;;;;;10.05;4.47;;;;;;;10.90;83.30;101358.81;5091177;28;20486;-62
2022/11/25 10:24:50;;;;;;;14.15;5.10;;;;;;;11.16;81.67;101369.78;5092749;28;20126;-62
2022/11/25 10:27:30;;;;;;;16.23;5.35;;;;;;;11.50;80.69;101364.25;5092518;28;20028;-62
2022/11/25 10:30:03;;;;;;;10.48;4.70;;;;;;;11.86;78.88;101365.69;5093815;28;20119;-62
2022/11/25 10:32:37;;;;;;;12.15;4.40;;;;;;;12.07;77.33;101366.19;5093953;28;20043;-62
2022/11/25 10:35:13;;;;;;;12.43;4.20;;;;;;;12.48;76.09;101376.13;5095092;28;20024;-62
2022/11/25 10:37:44;;;;;;;10.55;3.78;;;;;;;12.86;74.19;101380.84;5092672;28;20028;-62
2022/11/25 10:40:15;;;;;;;14.50;4.47;;;;;;;13.10;72.39;101379.25;5093648;28;20470;-62
2022/11/25 10:42:43;;;;;;;9.88;3.75;;;;;;;13.24;71.55;101382.84;5093338;28;20526;-62
2022/11/25 10:45:10;;;;;;;8.43;3.80;;;;;;;13.61;69.90;101379.44;5092115;28;20089;-63
2022/11/25 10:47:45;;;;;;;11.07;3.90;;;;;;;13.79;67.97;101388.03;5075979;28;20028;-62
2022/11/25 10:50:29;;;;;;;8.70;3.95;;;;;;;13.82;67.90;101386.97;5073650;28;20107;-62
2022/11/25 10:53:15;;;;;;;13.48;4.25;;;;;;;14.25;68.30;101397.41;5080737;28;20122;-62
2022/11/25 10:55:57;;;;;;;8.80;3.63;;;;;;;14.27;68.21;101379.44;5111743;28;20768;-62
2022/11/25 10:58:41;;;;;;;9.98;4.18;;;;;;;14.65;67.51;101394.63;5100731;28;20102;-62
2022/11/25 11:01:24;;;;;;;9.10;4.03;;;;;;;14.54;66.03;101403.41;5105687;28;20055;-62
2022/11/25 11:04:13;;;;;;;11.95;3.90;;;;;;;14.85;67.47;101403.88;5093660;28;20332;-62
2022/11/25 11:06:44;;;;;;;10.75;3.75;;;;;;;14.91;63.53;101404.31;5093242;28;20039;-61
2022/11/25 11:09:37;;;;;;;7.95;3.25;;;;;;;15.30;65.71;101405.03;5091575;28;20035;-62
2022/11/25 11:12:26;;;;;;;9.85;3.63;;;;;;;15.29;63.20;101418.53;5089133;28;20066;-62
2022/11/25 11:15:38;;;;;;;8.57;3.40;;;;;;;15.40;63.35;101421.28;5088989;28;20032;-62
2022/11/25 11:18:39;;;;;;;12.30;3.83;;;;;;;15.59;63.53;101429.69;5091875;28;20040;-62
2022/11/25 11:21:19;;;;;;;7.90;3.30;;;;;;;15.45;59.90;101429.84;5094486;28;20455;-62
2022/11/25 11:23:53;;;;;;;11.07;3.42;;;;;;;15.21;60.32;101449.47;5092461;28;20036;-62
2022/11/25 11:26:34;;;;;;;8.57;3.10;;;;;;;15.32;61.84;101432.56;5092603;28;20047;-62
2022/11/25 11:29:12;;;;;;;9.50;3.28;;;;;;;15.15;60.96;101441.88;5092656;28;20047;-62
2022/11/25 11:31:43;;;;;;;9.68;3.05;;;;;;;15.15;60.87;101439.19;5092866;28;20039;-62
2022/11/25 11:34:36;;;;;;;12.20;3.47;;;;;;;15.58;61.99;101441.38;5105196;28;20032;-64
2022/11/25 11:37:29;;;;;;;6.20;2.80;;;;;;;15.73;62.70;101446.59;5092574;28;20382;-62
2022/11/25 11:40:01;;;;;;;8.90;3.00;;;;;;;15.81;60.59;101454.91;5092265;28;20031;-62
2022/11/25 11:42:47;;;;;;;5.50;2.60;;;;;;;16.17;58.35;101453.94;5092950;28;20099;-62
2022/11/25 11:45:33;;;;;;;7.15;2.70;;;;;;;16.17;56.81;101466.50;5091533;28;20032;-62
2022/11/25 11:48:18;;;;;;;9.27;3.00;;;;;;;16.30;58.77;101472.66;5088456;28;20154;-62